x

Smith Island, Wa (sisw1) Weather Station

2:00 - Fri 23rd Jun 2017 All times are PDT. -7 hours from GMT.

  • Wind
    9mph, 11mph gusts
  • Air Temp 61°f
  • Sea Pressure 1023.4mb
  • Smith Island, Wa
  • Smith Island, Wa

More Historic Weather Station data

Upgrade to MSW Pro to gain access to the past 30 days of data for over 8000 Wavebouys and Weather Stations around the globe.

Join Pro

Comparision Forecast

View Surf forecast
   
ven. 06/23 2:00 9 11 mph 1023.4mb 61f
1:00 6 7 mph 1023.7mb 60f
12:00 6 8 mph 1024mb 59f
11:00 8 10 mph 1024.2mb 58f
10:00 9 10 mph 1024.4mb 55f
9:00 6 7 mph 1024.6mb 54f
8:00 2 3 mph 1024.5mb 55f
7:00 1 2 mph 1024.5mb 53f
6:00 5 5 mph 1024.1mb 52f
5:00 1 2 mph 1024mb 52f
4:00 3 5 mph 1023.8mb 51f
3:00 9 9 mph 1023.9mb 52f
2:00 6 7 mph 1024mb 53f
1:00 5 6 mph 1024.3mb 52f
12:00 5 6 mph 1024mb 53f
jeu. 06/22 11:00 16 18 mph 1023.9mb 54f
10:00 10 11 mph 1024mb 53f
9:00 11 13 mph 1023.9mb 55f
8:00 9 9 mph 1024mb 58f
7:00 14 15 mph 1024.1mb 59f
6:00 7 7 mph 1024.3mb 59f
5:00 10 11 mph 1024.8mb 59f
4:00 8 9 mph 1025.3mb 59f
3:00 7 8 mph 1025.7mb 58f
2:00 6 8 mph 1026mb 59f
1:00 5 6 mph 1026.6mb 58f
12:00 5 7 mph 1026.9mb 58f
11:00 5 8 mph 1027.1mb 56f
10:00 6 7 mph 1027.4mb 54f
9:00 5 7 mph 1027.5mb 53f
8:00 2 3 mph 1027.1mb 53f
7:00 2 3 mph 1026.9mb 52f
6:00 5 5 mph 1026.5mb 51f
5:00 5 5 mph 1026.2mb 51f
4:00  -  0 mph 1026.1mb 51f
3:00  -  0 mph 1026.4mb 52f
2:00 2 3 mph 1026.6mb 52f
1:00 11 11 mph 1026mb 52f
12:00 13 16 mph 1025.8mb 52f
mer. 06/21 11:00 15 17 mph 1025.6mb 52f
10:00 15 21 mph 1025.5mb 53f
9:00 15 17 mph 1025.4mb 53f
8:00 11 16 mph 1025.7mb 53f
7:00 10 11 mph 1025.6mb 55f
6:00 11 15 mph 1025.7mb 55f
5:00 9 10 mph 1026.1mb 56f
4:00 3 6 mph 1026.4mb 59f
3:00 11 11 mph 1026.4mb 57f
2:00 11 13 mph 1026.6mb 56f
1:00 15 17 mph 1026.7mb 55f
12:00 17 20 mph 1026.7mb 55f
11:00 18 22 mph 1026.6mb 54f
10:00 14 17 mph 1026.6mb 54f
9:00 13 14 mph 1026.4mb 54f
8:00 11 13 mph 1025.8mb 53f
7:00 14 16 mph 1025.4mb 52f
6:00 15 21 mph 1024.7mb 52f
5:00 17 26 mph 1024.7mb 51f
4:00 21 26 mph 1024.3mb 52f
3:00 18 28 mph 1023.9mb 52f
2:00 21 29 mph 1023.5mb 52f
1:00 28 36 mph 1023.2mb 52f
12:00 25 33 mph 1022.8mb 52f
mar. 06/20 11:00 32 40 mph 1022.5mb 53f
10:00 32 44 mph 1021.9mb 53f
9:00 33 43 mph 1021.3mb 53f
8:00 33 41 mph 1020.7mb 54f
7:00 34 38 mph 1020.9mb 55f
6:00 33 39 mph 1020.5mb 55f
5:00 38 44 mph 1020.3mb 56f
4:00 21 31 mph 1020.5mb 56f
3:00 36 40 mph 1020.1mb 55f
2:00 23 31 mph 1020.2mb 56f
1:00 21 30 mph 1020.2mb 54f
12:00 18 26 mph 1019.6mb 54f
11:00 23 25 mph 1019.5mb 53f
10:00 21 23 mph 1019mb 55f
9:00 16 17 mph 1018.8mb 56f
8:00 15 16 mph 1018.1mb 55f
7:00 23 24 mph 1017.4mb 54f
6:00 23 24 mph 1016.9mb 54f
5:00 20 21 mph 1016.6mb 54f
4:00 23 25 mph 1016.4mb 54f
3:00 18 20 mph 1016.4mb 55f
2:00 16 17 mph 1016.3mb 54f
1:00 15 15 mph 1016.3mb 55f
12:00 7 7 mph 1016.4mb 55f
lun. 06/19 11:00 3 3 mph 1016.4mb 56f